Terminal Aerodrome Forecast
Issued by NWS

Current Version | Previous Version | Text Only | Print | Product List | Glossary Off
Versions: 1 2 3 4 5 6 7 8 9 10 11 12 13 14 15 16 17 18 19 20 21

000
FTUS41 KPBZ 280900 AAA
TAFMGW
TAF AMD
KMGW 280959Z 2810/2906 29005KT P6SM BKN020
      TEMPO 2810/2812 BKN015
     FM281500 31013G15KT P6SM BKN035
     FM281800 31013G18KT P6SM VCSH BKN035
     FM290400 30005KT P6SM SCT035=

USA.gov is the U.S. government's official web portal to all federal, state and local government web resources and services.